Kezdőlap
METAR-TAF:

METAR-TAF

Repülőterek :

St. Paul Downtown Airport (Holman Field)

Saint Paul, Minnesota, Amerikai Egyesült Államok

földrajzi szélesség: 44-55-49N, földrajzi hosszúság: 093-02-53W, magasság: 214 m

Jelenlegi meteorológiai megfigyelések

A jelentés 53 perccel ezelõtt készült, 14:53 UTC
Északnyugati szél 9 kt
Hőmérséklet -8°C
Páratartalom 79%
Légköri nyomás 1029 hPa
Látótávolság: 16.1 km
Derült ég

METAR: KSTP 061453Z 32009KT 10SM CLR M08/M11 A3038 RMK AO2 SLP295 T10781111 53012

Idő: 09:46 (15:46 UTC)


TAF: hiányzik

Meteorológiai megfigyelések és előrejelzések több, mint 4000 repülőtéren (METAR és TAF jelentéseket).

A térképen piros és sárga pontok jelzik az elérhető meteorológiai állomásokat.

Mozgassa az egeret a pont fölött, hogy megjelenjen az állomás neve.

Azután kattintson az időjárási megfigyelések és előrejelzések megtekintéséhez.

A térkép megváltoztatása: kattintson a fekete keresztel jelölt zöld gombra ráközelítéshez, a vonallal jelölt zöld gombra távolításhoz, vagy a zöld nyilakra a szomszédos térképek eléréséhez.


METAR-TAF: